sensor_id;sensor_type;location;lat;lon;timestamp;P1;durP1;ratioP1;P2;durP2;ratioP2
22129;SDS011;11231;50.746;4.272;2023-12-20T00:01:26;11.93;;;2.17;;
22129;SDS011;11231;50.746;4.272;2023-12-20T00:03:52;16.50;;;2.40;;
22129;SDS011;11231;50.746;4.272;2023-12-20T00:06:18;16.53;;;2.47;;
22129;SDS011;11231;50.746;4.272;2023-12-20T00:08:44;14.27;;;2.80;;
22129;SDS011;11231;50.746;4.272;2023-12-20T00:11:09;14.33;;;2.40;;
22129;SDS011;11231;50.746;4.272;2023-12-20T00:13:35;17.50;;;2.43;;
22129;SDS011;11231;50.746;4.272;2023-12-20T00:16:01;19.03;;;2.83;;
22129;SDS011;11231;50.746;4.272;2023-12-20T00:18:27;20.50;;;2.50;;
22129;SDS011;11231;50.746;4.272;2023-12-20T00:20:52;15.10;;;2.37;;
22129;SDS011;11231;50.746;4.272;2023-12-20T00:23:18;14.63;;;2.73;;
22129;SDS011;11231;50.746;4.272;2023-12-20T00:25:44;21.03;;;2.90;;
22129;SDS011;11231;50.746;4.272;2023-12-20T00:28:10;12.37;;;2.33;;
22129;SDS011;11231;50.746;4.272;2023-12-20T00:30:36;17.47;;;2.47;;
22129;SDS011;11231;50.746;4.272;2023-12-20T00:33:02;17.10;;;2.40;;
22129;SDS011;11231;50.746;4.272;2023-12-20T00:35:27;17.60;;;2.40;;
22129;SDS011;11231;50.746;4.272;2023-12-20T00:37:53;15.03;;;2.87;;
22129;SDS011;11231;50.746;4.272;2023-12-20T00:40:19;15.10;;;2.50;;
22129;SDS011;11231;50.746;4.272;2023-12-20T00:42:45;12.10;;;2.67;;
22129;SDS011;11231;50.746;4.272;2023-12-20T00:45:12;18.00;;;2.47;;
22129;SDS011;11231;50.746;4.272;2023-12-20T00:47:38;14.37;;;2.90;;
22129;SDS011;11231;50.746;4.272;2023-12-20T00:50:03;11.97;;;2.70;;
22129;SDS011;11231;50.746;4.272;2023-12-20T00:52:30;19.50;;;3.43;;
22129;SDS011;11231;50.746;4.272;2023-12-20T00:54:55;20.80;;;3.30;;
22129;SDS011;11231;50.746;4.272;2023-12-20T00:57:21;13.40;;;2.90;;
22129;SDS011;11231;50.746;4.272;2023-12-20T00:59:47;16.90;;;2.80;;
22129;SDS011;11231;50.746;4.272;2023-12-20T01:02:13;19.00;;;3.17;;
22129;SDS011;11231;50.746;4.272;2023-12-20T01:04:38;18.00;;;2.93;;
22129;SDS011;11231;50.746;4.272;2023-12-20T01:07:04;18.90;;;3.13;;
22129;SDS011;11231;50.746;4.272;2023-12-20T01:09:30;16.87;;;3.17;;
22129;SDS011;11231;50.746;4.272;2023-12-20T01:11:55;17.43;;;3.10;;
22129;SDS011;11231;50.746;4.272;2023-12-20T01:14:21;22.50;;;3.60;;
22129;SDS011;11231;50.746;4.272;2023-12-20T01:16:47;17.63;;;3.10;;
22129;SDS011;11231;50.746;4.272;2023-12-20T01:19:13;15.17;;;2.73;;
22129;SDS011;11231;50.746;4.272;2023-12-20T01:21:39;16.23;;;3.10;;
22129;SDS011;11231;50.746;4.272;2023-12-20T01:24:08;27.03;;;4.07;;
22129;SDS011;11231;50.746;4.272;2023-12-20T01:26:34;16.33;;;2.70;;
22129;SDS011;11231;50.746;4.272;2023-12-20T01:29:00;20.70;;;3.80;;
22129;SDS011;11231;50.746;4.272;2023-12-20T01:31:26;21.37;;;3.40;;
22129;SDS011;11231;50.746;4.272;2023-12-20T01:33:52;21.57;;;4.33;;
22129;SDS011;11231;50.746;4.272;2023-12-20T01:36:18;15.60;;;3.40;;
22129;SDS011;11231;50.746;4.272;2023-12-20T01:38:44;21.07;;;3.80;;
22129;SDS011;11231;50.746;4.272;2023-12-20T01:41:10;25.20;;;4.07;;
22129;SDS011;11231;50.746;4.272;2023-12-20T01:43:36;24.63;;;3.90;;
22129;SDS011;11231;50.746;4.272;2023-12-20T01:46:02;22.67;;;3.77;;
22129;SDS011;11231;50.746;4.272;2023-12-20T01:48:28;19.27;;;3.67;;
22129;SDS011;11231;50.746;4.272;2023-12-20T01:50:56;19.17;;;3.77;;
22129;SDS011;11231;50.746;4.272;2023-12-20T01:53:23;20.87;;;4.00;;
22129;SDS011;11231;50.746;4.272;2023-12-20T01:55:51;18.07;;;3.60;;
22129;SDS011;11231;50.746;4.272;2023-12-20T01:58:19;22.03;;;4.60;;
22129;SDS011;11231;50.746;4.272;2023-12-20T02:00:45;24.63;;;4.53;;
22129;SDS011;11231;50.746;4.272;2023-12-20T02:03:12;20.27;;;4.03;;
22129;SDS011;11231;50.746;4.272;2023-12-20T02:05:37;18.33;;;4.13;;
22129;SDS011;11231;50.746;4.272;2023-12-20T02:08:04;26.77;;;4.40;;
22129;SDS011;11231;50.746;4.272;2023-12-20T02:10:31;18.27;;;4.63;;
22129;SDS011;11231;50.746;4.272;2023-12-20T02:12:57;21.77;;;4.97;;
22129;SDS011;11231;50.746;4.272;2023-12-20T02:15:23;22.67;;;5.10;;
22129;SDS011;11231;50.746;4.272;2023-12-20T02:17:49;17.00;;;4.07;;
22129;SDS011;11231;50.746;4.272;2023-12-20T02:20:15;23.77;;;4.67;;
22129;SDS011;11231;50.746;4.272;2023-12-20T02:22:41;24.57;;;5.00;;
22129;SDS011;11231;50.746;4.272;2023-12-20T02:25:06;25.13;;;4.60;;
22129;SDS011;11231;50.746;4.272;2023-12-20T02:27:32;20.93;;;4.97;;
22129;SDS011;11231;50.746;4.272;2023-12-20T02:29:59;22.13;;;5.17;;
22129;SDS011;11231;50.746;4.272;2023-12-20T02:32:25;19.13;;;4.97;;
22129;SDS011;11231;50.746;4.272;2023-12-20T02:34:54;20.83;;;6.03;;
22129;SDS011;11231;50.746;4.272;2023-12-20T02:37:20;21.70;;;5.63;;
22129;SDS011;11231;50.746;4.272;2023-12-20T02:39:46;18.07;;;4.57;;
22129;SDS011;11231;50.746;4.272;2023-12-20T02:42:12;26.97;;;5.17;;
22129;SDS011;11231;50.746;4.272;2023-12-20T02:44:38;24.10;;;5.33;;
22129;SDS011;11231;50.746;4.272;2023-12-20T02:47:05;28.37;;;5.37;;
22129;SDS011;11231;50.746;4.272;2023-12-20T02:49:31;20.67;;;5.57;;
22129;SDS011;11231;50.746;4.272;2023-12-20T02:51:56;20.43;;;5.30;;
22129;SDS011;11231;50.746;4.272;2023-12-20T02:54:22;28.33;;;6.10;;
22129;SDS011;11231;50.746;4.272;2023-12-20T02:56:48;19.80;;;5.00;;
22129;SDS011;11231;50.746;4.272;2023-12-20T02:59:15;23.63;;;5.40;;
22129;SDS011;11231;50.746;4.272;2023-12-20T03:01:44;20.77;;;5.53;;
22129;SDS011;11231;50.746;4.272;2023-12-20T03:04:11;18.23;;;5.20;;
22129;SDS011;11231;50.746;4.272;2023-12-20T03:06:37;22.10;;;5.17;;
22129;SDS011;11231;50.746;4.272;2023-12-20T03:09:04;18.30;;;5.70;;
22129;SDS011;11231;50.746;4.272;2023-12-20T03:11:30;23.57;;;5.30;;
22129;SDS011;11231;50.746;4.272;2023-12-20T03:13:56;20.90;;;4.80;;
22129;SDS011;11231;50.746;4.272;2023-12-20T03:16:22;27.30;;;4.83;;
22129;SDS011;11231;50.746;4.272;2023-12-20T03:18:48;21.50;;;4.57;;
22129;SDS011;11231;50.746;4.272;2023-12-20T03:21:14;19.40;;;4.90;;
22129;SDS011;11231;50.746;4.272;2023-12-20T03:23:40;20.10;;;4.00;;
22129;SDS011;11231;50.746;4.272;2023-12-20T03:26:06;23.43;;;5.10;;
22129;SDS011;11231;50.746;4.272;2023-12-20T03:28:33;17.53;;;4.27;;
22129;SDS011;11231;50.746;4.272;2023-12-20T03:30:59;20.17;;;4.67;;
22129;SDS011;11231;50.746;4.272;2023-12-20T03:33:24;21.47;;;5.00;;
22129;SDS011;11231;50.746;4.272;2023-12-20T03:35:50;18.60;;;4.80;;
22129;SDS011;11231;50.746;4.272;2023-12-20T03:38:16;17.83;;;4.47;;
22129;SDS011;11231;50.746;4.272;2023-12-20T03:40:42;14.67;;;4.07;;
22129;SDS011;11231;50.746;4.272;2023-12-20T03:43:08;16.27;;;4.73;;
22129;SDS011;11231;50.746;4.272;2023-12-20T03:45:33;21.83;;;4.70;;
22129;SDS011;11231;50.746;4.272;2023-12-20T03:47:59;13.53;;;3.60;;
22129;SDS011;11231;50.746;4.272;2023-12-20T03:50:25;19.20;;;4.23;;
22129;SDS011;11231;50.746;4.272;2023-12-20T03:52:51;19.23;;;4.10;;
22129;SDS011;11231;50.746;4.272;2023-12-20T03:55:17;16.37;;;3.63;;
22129;SDS011;11231;50.746;4.272;2023-12-20T03:57:43;15.30;;;3.83;;
22129;SDS011;11231;50.746;4.272;2023-12-20T04:00:09;16.60;;;3.63;;
22129;SDS011;11231;50.746;4.272;2023-12-20T04:02:42;16.87;;;3.70;;
22129;SDS011;11231;50.746;4.272;2023-12-20T04:05:08;19.17;;;3.90;;
22129;SDS011;11231;50.746;4.272;2023-12-20T04:07:35;18.37;;;3.57;;
22129;SDS011;11231;50.746;4.272;2023-12-20T04:10:01;21.83;;;3.63;;
22129;SDS011;11231;50.746;4.272;2023-12-20T04:12:29;17.53;;;3.67;;
22129;SDS011;11231;50.746;4.272;2023-12-20T04:14:56;18.23;;;3.80;;
22129;SDS011;11231;50.746;4.272;2023-12-20T04:17:23;13.30;;;3.57;;
22129;SDS011;11231;50.746;4.272;2023-12-20T04:19:49;21.87;;;4.10;;
22129;SDS011;11231;50.746;4.272;2023-12-20T04:22:17;15.10;;;3.43;;
22129;SDS011;11231;50.746;4.272;2023-12-20T04:24:43;13.33;;;3.73;;
22129;SDS011;11231;50.746;4.272;2023-12-20T04:27:09;18.17;;;3.53;;
22129;SDS011;11231;50.746;4.272;2023-12-20T04:29:35;17.37;;;3.60;;
22129;SDS011;11231;50.746;4.272;2023-12-20T04:32:00;17.83;;;3.70;;
22129;SDS011;11231;50.746;4.272;2023-12-20T04:34:26;22.17;;;3.70;;
22129;SDS011;11231;50.746;4.272;2023-12-20T04:36:52;15.60;;;3.97;;
22129;SDS011;11231;50.746;4.272;2023-12-20T04:39:18;20.07;;;3.50;;
22129;SDS011;11231;50.746;4.272;2023-12-20T04:41:44;17.37;;;3.60;;
22129;SDS011;11231;50.746;4.272;2023-12-20T04:44:10;17.40;;;3.70;;
22129;SDS011;11231;50.746;4.272;2023-12-20T04:46:36;17.27;;;3.93;;
22129;SDS011;11231;50.746;4.272;2023-12-20T04:49:01;17.30;;;3.77;;
22129;SDS011;11231;50.746;4.272;2023-12-20T04:51:27;19.70;;;3.83;;
22129;SDS011;11231;50.746;4.272;2023-12-20T04:53:53;16.23;;;3.57;;
22129;SDS011;11231;50.746;4.272;2023-12-20T04:56:19;14.30;;;3.73;;
22129;SDS011;11231;50.746;4.272;2023-12-20T04:58:44;21.13;;;3.57;;
22129;SDS011;11231;50.746;4.272;2023-12-20T05:01:10;23.17;;;3.73;;
22129;SDS011;11231;50.746;4.272;2023-12-20T05:03:37;18.17;;;3.70;;
22129;SDS011;11231;50.746;4.272;2023-12-20T05:06:02;20.20;;;3.57;;
22129;SDS011;11231;50.746;4.272;2023-12-20T05:08:28;20.90;;;3.87;;
22129;SDS011;11231;50.746;4.272;2023-12-20T05:10:54;13.83;;;3.20;;
22129;SDS011;11231;50.746;4.272;2023-12-20T05:13:20;14.57;;;3.50;;
22129;SDS011;11231;50.746;4.272;2023-12-20T05:15:46;18.33;;;3.90;;
22129;SDS011;11231;50.746;4.272;2023-12-20T05:18:12;15.73;;;3.63;;
22129;SDS011;11231;50.746;4.272;2023-12-20T05:20:38;18.73;;;3.83;;
22129;SDS011;11231;50.746;4.272;2023-12-20T05:23:04;18.63;;;4.07;;
22129;SDS011;11231;50.746;4.272;2023-12-20T05:25:30;16.07;;;3.43;;
22129;SDS011;11231;50.746;4.272;2023-12-20T05:27:56;15.23;;;3.47;;
22129;SDS011;11231;50.746;4.272;2023-12-20T05:30:22;19.57;;;3.40;;
22129;SDS011;11231;50.746;4.272;2023-12-20T05:32:48;15.60;;;3.07;;
22129;SDS011;11231;50.746;4.272;2023-12-20T05:35:14;12.90;;;2.70;;
22129;SDS011;11231;50.746;4.272;2023-12-20T05:37:40;15.47;;;3.33;;
22129;SDS011;11231;50.746;4.272;2023-12-20T05:40:06;14.83;;;3.70;;
22129;SDS011;11231;50.746;4.272;2023-12-20T05:42:35;20.20;;;3.77;;
22129;SDS011;11231;50.746;4.272;2023-12-20T05:45:02;16.43;;;3.23;;
22129;SDS011;11231;50.746;4.272;2023-12-20T05:47:28;16.20;;;3.57;;
22129;SDS011;11231;50.746;4.272;2023-12-20T05:49:54;17.47;;;3.40;;
22129;SDS011;11231;50.746;4.272;2023-12-20T05:52:20;20.03;;;3.77;;
22129;SDS011;11231;50.746;4.272;2023-12-20T05:54:46;21.23;;;3.83;;
22129;SDS011;11231;50.746;4.272;2023-12-20T05:57:12;18.13;;;3.90;;
22129;SDS011;11231;50.746;4.272;2023-12-20T05:59:38;21.50;;;4.07;;
22129;SDS011;11231;50.746;4.272;2023-12-20T06:02:04;18.13;;;3.73;;
22129;SDS011;11231;50.746;4.272;2023-12-20T06:04:30;16.27;;;3.53;;
22129;SDS011;11231;50.746;4.272;2023-12-20T06:06:56;15.90;;;3.60;;
22129;SDS011;11231;50.746;4.272;2023-12-20T06:09:22;17.60;;;3.83;;
22129;SDS011;11231;50.746;4.272;2023-12-20T06:11:48;18.10;;;3.50;;
22129;SDS011;11231;50.746;4.272;2023-12-20T06:14:13;18.00;;;3.53;;
22129;SDS011;11231;50.746;4.272;2023-12-20T06:16:39;18.40;;;3.87;;
22129;SDS011;11231;50.746;4.272;2023-12-20T06:19:05;19.73;;;4.17;;
22129;SDS011;11231;50.746;4.272;2023-12-20T06:21:31;20.43;;;3.70;;
22129;SDS011;11231;50.746;4.272;2023-12-20T06:23:58;18.50;;;4.10;;
22129;SDS011;11231;50.746;4.272;2023-12-20T06:26:25;18.67;;;3.77;;
22129;SDS011;11231;50.746;4.272;2023-12-20T06:28:51;22.23;;;3.70;;
22129;SDS011;11231;50.746;4.272;2023-12-20T06:31:16;24.63;;;3.77;;
22129;SDS011;11231;50.746;4.272;2023-12-20T06:33:42;13.33;;;2.87;;
22129;SDS011;11231;50.746;4.272;2023-12-20T06:36:12;17.87;;;2.80;;
22129;SDS011;11231;50.746;4.272;2023-12-20T06:38:41;19.90;;;3.60;;
22129;SDS011;11231;50.746;4.272;2023-12-20T06:41:12;11.80;;;2.93;;
22129;SDS011;11231;50.746;4.272;2023-12-20T06:43:39;18.53;;;3.07;;
22129;SDS011;11231;50.746;4.272;2023-12-20T06:46:06;14.57;;;2.73;;
22129;SDS011;11231;50.746;4.272;2023-12-20T06:48:31;15.23;;;3.00;;
22129;SDS011;11231;50.746;4.272;2023-12-20T06:50:59;15.20;;;3.00;;
22129;SDS011;11231;50.746;4.272;2023-12-20T06:53:27;17.77;;;3.70;;
22129;SDS011;11231;50.746;4.272;2023-12-20T06:55:53;23.53;;;3.33;;
22129;SDS011;11231;50.746;4.272;2023-12-20T06:58:18;20.10;;;3.57;;
22129;SDS011;11231;50.746;4.272;2023-12-20T07:00:44;14.87;;;2.77;;
22129;SDS011;11231;50.746;4.272;2023-12-20T07:03:11;15.67;;;3.33;;
22129;SDS011;11231;50.746;4.272;2023-12-20T07:05:37;15.17;;;3.27;;
22129;SDS011;11231;50.746;4.272;2023-12-20T07:08:03;19.57;;;2.97;;
22129;SDS011;11231;50.746;4.272;2023-12-20T07:10:29;20.00;;;3.20;;
22129;SDS011;11231;50.746;4.272;2023-12-20T07:12:54;14.40;;;3.10;;
22129;SDS011;11231;50.746;4.272;2023-12-20T07:15:21;19.77;;;3.93;;
22129;SDS011;11231;50.746;4.272;2023-12-20T07:17:48;23.83;;;3.67;;
22129;SDS011;11231;50.746;4.272;2023-12-20T07:20:15;16.13;;;3.37;;
22129;SDS011;11231;50.746;4.272;2023-12-20T07:22:41;14.00;;;3.30;;
22129;SDS011;11231;50.746;4.272;2023-12-20T07:25:07;16.17;;;3.23;;
22129;SDS011;11231;50.746;4.272;2023-12-20T07:27:33;17.17;;;3.40;;
22129;SDS011;11231;50.746;4.272;2023-12-20T07:29:59;19.47;;;3.40;;
22129;SDS011;11231;50.746;4.272;2023-12-20T07:32:25;19.13;;;3.30;;
22129;SDS011;11231;50.746;4.272;2023-12-20T07:34:51;17.83;;;3.27;;
22129;SDS011;11231;50.746;4.272;2023-12-20T07:37:17;16.40;;;3.27;;
22129;SDS011;11231;50.746;4.272;2023-12-20T07:39:42;19.90;;;3.47;;
22129;SDS011;11231;50.746;4.272;2023-12-20T07:42:08;20.10;;;3.43;;
22129;SDS011;11231;50.746;4.272;2023-12-20T07:44:34;14.03;;;3.37;;
22129;SDS011;11231;50.746;4.272;2023-12-20T07:47:01;14.13;;;3.07;;
22129;SDS011;11231;50.746;4.272;2023-12-20T07:49:27;20.27;;;3.17;;
22129;SDS011;11231;50.746;4.272;2023-12-20T07:51:53;20.13;;;3.40;;
22129;SDS011;11231;50.746;4.272;2023-12-20T07:54:18;17.57;;;3.20;;
22129;SDS011;11231;50.746;4.272;2023-12-20T07:56:45;21.63;;;3.20;;
22129;SDS011;11231;50.746;4.272;2023-12-20T07:59:11;17.70;;;2.60;;
22129;SDS011;11231;50.746;4.272;2023-12-20T08:01:37;18.87;;;3.37;;
22129;SDS011;11231;50.746;4.272;2023-12-20T08:04:03;18.00;;;3.20;;
22129;SDS011;11231;50.746;4.272;2023-12-20T08:06:31;27.47;;;3.57;;
22129;SDS011;11231;50.746;4.272;2023-12-20T08:08:57;18.87;;;4.10;;
22129;SDS011;11231;50.746;4.272;2023-12-20T08:11:22;21.13;;;3.20;;
22129;SDS011;11231;50.746;4.272;2023-12-20T08:13:48;17.43;;;3.80;;
22129;SDS011;11231;50.746;4.272;2023-12-20T08:16:14;20.30;;;4.20;;
22129;SDS011;11231;50.746;4.272;2023-12-20T08:18:42;24.33;;;3.90;;
22129;SDS011;11231;50.746;4.272;2023-12-20T08:21:08;23.83;;;5.30;;
22129;SDS011;11231;50.746;4.272;2023-12-20T08:23:34;22.30;;;5.67;;
22129;SDS011;11231;50.746;4.272;2023-12-20T08:26:03;24.00;;;5.07;;
22129;SDS011;11231;50.746;4.272;2023-12-20T08:28:30;20.30;;;4.77;;
22129;SDS011;11231;50.746;4.272;2023-12-20T08:30:56;25.27;;;4.27;;
22129;SDS011;11231;50.746;4.272;2023-12-20T08:33:22;25.67;;;3.80;;
22129;SDS011;11231;50.746;4.272;2023-12-20T08:35:48;21.00;;;3.70;;
22129;SDS011;11231;50.746;4.272;2023-12-20T08:38:13;23.50;;;3.90;;
22129;SDS011;11231;50.746;4.272;2023-12-20T08:40:39;17.60;;;4.10;;
22129;SDS011;11231;50.746;4.272;2023-12-20T08:43:05;21.07;;;3.70;;
22129;SDS011;11231;50.746;4.272;2023-12-20T08:45:31;19.47;;;3.73;;
22129;SDS011;11231;50.746;4.272;2023-12-20T08:47:57;19.10;;;3.60;;
22129;SDS011;11231;50.746;4.272;2023-12-20T08:50:22;21.03;;;3.50;;
22129;SDS011;11231;50.746;4.272;2023-12-20T08:52:49;16.50;;;3.30;;
22129;SDS011;11231;50.746;4.272;2023-12-20T08:55:15;18.50;;;3.20;;
22129;SDS011;11231;50.746;4.272;2023-12-20T08:57:43;19.30;;;3.37;;
22129;SDS011;11231;50.746;4.272;2023-12-20T09:00:09;17.57;;;3.20;;
22129;SDS011;11231;50.746;4.272;2023-12-20T09:02:35;22.23;;;3.83;;
22129;SDS011;11231;50.746;4.272;2023-12-20T09:05:04;18.77;;;3.37;;
22129;SDS011;11231;50.746;4.272;2023-12-20T09:07:30;21.23;;;3.43;;
22129;SDS011;11231;50.746;4.272;2023-12-20T09:09:57;19.43;;;3.63;;
22129;SDS011;11231;50.746;4.272;2023-12-20T09:12:23;20.73;;;3.80;;
22129;SDS011;11231;50.746;4.272;2023-12-20T09:14:55;17.77;;;3.53;;
22129;SDS011;11231;50.746;4.272;2023-12-20T09:17:21;16.40;;;3.60;;
22129;SDS011;11231;50.746;4.272;2023-12-20T09:19:48;18.57;;;3.10;;
22129;SDS011;11231;50.746;4.272;2023-12-20T09:22:14;24.43;;;3.83;;
22129;SDS011;11231;50.746;4.272;2023-12-20T09:24:40;17.90;;;2.87;;
22129;SDS011;11231;50.746;4.272;2023-12-20T09:27:05;22.03;;;3.63;;
22129;SDS011;11231;50.746;4.272;2023-12-20T09:29:31;20.97;;;3.23;;
22129;SDS011;11231;50.746;4.272;2023-12-20T09:31:57;13.13;;;2.83;;
22129;SDS011;11231;50.746;4.272;2023-12-20T09:34:23;18.57;;;3.83;;
22129;SDS011;11231;50.746;4.272;2023-12-20T09:36:50;24.60;;;4.40;;
22129;SDS011;11231;50.746;4.272;2023-12-20T09:39:17;25.23;;;3.90;;
22129;SDS011;11231;50.746;4.272;2023-12-20T09:41:46;23.97;;;4.03;;
22129;SDS011;11231;50.746;4.272;2023-12-20T09:44:35;18.97;;;3.83;;
22129;SDS011;11231;50.746;4.272;2023-12-20T09:47:04;23.03;;;3.83;;
22129;SDS011;11231;50.746;4.272;2023-12-20T09:49:30;15.93;;;3.50;;
22129;SDS011;11231;50.746;4.272;2023-12-20T09:51:57;21.30;;;3.57;;
22129;SDS011;11231;50.746;4.272;2023-12-20T09:54:25;18.60;;;4.03;;
22129;SDS011;11231;50.746;4.272;2023-12-20T09:56:53;21.90;;;4.57;;
22129;SDS011;11231;50.746;4.272;2023-12-20T09:59:19;21.63;;;5.27;;
22129;SDS011;11231;50.746;4.272;2023-12-20T10:01:45;20.40;;;6.20;;
22129;SDS011;11231;50.746;4.272;2023-12-20T10:04:12;28.17;;;7.57;;
22129;SDS011;11231;50.746;4.272;2023-12-20T10:06:42;23.80;;;6.70;;
22129;SDS011;11231;50.746;4.272;2023-12-20T10:09:11;21.93;;;4.57;;
22129;SDS011;11231;50.746;4.272;2023-12-20T10:11:37;17.23;;;3.40;;
22129;SDS011;11231;50.746;4.272;2023-12-20T10:14:05;17.13;;;3.77;;
22129;SDS011;11231;50.746;4.272;2023-12-20T10:16:31;20.60;;;3.80;;
22129;SDS011;11231;50.746;4.272;2023-12-20T10:18:58;18.63;;;2.70;;
22129;SDS011;11231;50.746;4.272;2023-12-20T10:21:25;17.87;;;3.40;;
22129;SDS011;11231;50.746;4.272;2023-12-20T10:23:52;21.47;;;3.27;;
22129;SDS011;11231;50.746;4.272;2023-12-20T10:26:24;19.90;;;3.67;;
22129;SDS011;11231;50.746;4.272;2023-12-20T10:28:51;26.30;;;5.13;;
22129;SDS011;11231;50.746;4.272;2023-12-20T10:31:31;20.80;;;4.77;;
22129;SDS011;11231;50.746;4.272;2023-12-20T10:33:59;18.17;;;3.73;;
22129;SDS011;11231;50.746;4.272;2023-12-20T10:36:26;13.87;;;3.30;;
22129;SDS011;11231;50.746;4.272;2023-12-20T10:38:54;21.00;;;3.90;;
22129;SDS011;11231;50.746;4.272;2023-12-20T10:41:29;17.17;;;2.90;;
22129;SDS011;11231;50.746;4.272;2023-12-20T10:43:58;20.93;;;3.57;;
22129;SDS011;11231;50.746;4.272;2023-12-20T10:46:26;15.83;;;3.07;;
22129;SDS011;11231;50.746;4.272;2023-12-20T10:48:55;16.47;;;3.47;;
22129;SDS011;11231;50.746;4.272;2023-12-20T10:51:22;20.73;;;4.17;;
22129;SDS011;11231;50.746;4.272;2023-12-20T10:53:49;18.43;;;3.40;;
22129;SDS011;11231;50.746;4.272;2023-12-20T10:56:17;17.90;;;3.47;;
22129;SDS011;11231;50.746;4.272;2023-12-20T10:58:44;17.03;;;4.20;;
22129;SDS011;11231;50.746;4.272;2023-12-20T11:01:13;19.03;;;3.80;;
22129;SDS011;11231;50.746;4.272;2023-12-20T11:03:52;21.97;;;4.00;;
22129;SDS011;11231;50.746;4.272;2023-12-20T11:09:24;18.30;;;3.87;;
22129;SDS011;11231;50.746;4.272;2023-12-20T11:14:39;18.10;;;3.30;;
22129;SDS011;11231;50.746;4.272;2023-12-20T11:17:09;17.53;;;3.13;;
22129;SDS011;11231;50.746;4.272;2023-12-20T11:20:34;19.27;;;3.63;;
22129;SDS011;11231;50.746;4.272;2023-12-20T11:22:30;18.30;;;3.50;;
22129;SDS011;11231;50.746;4.272;2023-12-20T11:25:06;16.70;;;3.40;;
22129;SDS011;11231;50.746;4.272;2023-12-20T11:27:36;22.30;;;3.27;;
22129;SDS011;11231;50.746;4.272;2023-12-20T11:30:08;18.20;;;3.30;;
22129;SDS011;11231;50.746;4.272;2023-12-20T11:32:35;20.20;;;4.17;;
22129;SDS011;11231;50.746;4.272;2023-12-20T11:37:36;23.97;;;3.90;;
22129;SDS011;11231;50.746;4.272;2023-12-20T11:40:08;22.23;;;4.53;;
22129;SDS011;11231;50.746;4.272;2023-12-20T11:42:44;15.20;;;3.17;;
22129;SDS011;11231;50.746;4.272;2023-12-20T11:45:11;22.20;;;4.27;;
22129;SDS011;11231;50.746;4.272;2023-12-20T11:47:48;20.40;;;3.67;;
22129;SDS011;11231;50.746;4.272;2023-12-20T11:50:15;19.70;;;3.57;;
22129;SDS011;11231;50.746;4.272;2023-12-20T11:52:41;15.63;;;3.50;;
22129;SDS011;11231;50.746;4.272;2023-12-20T11:55:07;22.33;;;3.83;;
22129;SDS011;11231;50.746;4.272;2023-12-20T11:57:33;20.67;;;3.23;;
22129;SDS011;11231;50.746;4.272;2023-12-20T11:59:59;21.50;;;4.00;;
22129;SDS011;11231;50.746;4.272;2023-12-20T12:02:25;18.70;;;3.63;;
22129;SDS011;11231;50.746;4.272;2023-12-20T12:04:51;21.57;;;4.27;;
22129;SDS011;11231;50.746;4.272;2023-12-20T12:07:17;20.27;;;3.23;;
22129;SDS011;11231;50.746;4.272;2023-12-20T12:09:43;15.87;;;3.07;;
22129;SDS011;11231;50.746;4.272;2023-12-20T12:12:10;13.43;;;2.83;;
22129;SDS011;11231;50.746;4.272;2023-12-20T12:14:37;21.80;;;3.60;;
22129;SDS011;11231;50.746;4.272;2023-12-20T12:17:04;20.30;;;3.23;;
22129;SDS011;11231;50.746;4.272;2023-12-20T12:19:30;22.63;;;3.53;;
22129;SDS011;11231;50.746;4.272;2023-12-20T12:22:04;17.30;;;3.10;;
22129;SDS011;11231;50.746;4.272;2023-12-20T12:24:32;21.30;;;3.87;;
22129;SDS011;11231;50.746;4.272;2023-12-20T12:26:58;20.53;;;3.23;;
22129;SDS011;11231;50.746;4.272;2023-12-20T12:29:24;21.83;;;3.97;;
22129;SDS011;11231;50.746;4.272;2023-12-20T12:31:50;27.23;;;5.13;;
22129;SDS011;11231;50.746;4.272;2023-12-20T12:34:17;18.30;;;4.03;;
22129;SDS011;11231;50.746;4.272;2023-12-20T12:36:43;18.47;;;5.23;;
22129;SDS011;11231;50.746;4.272;2023-12-20T12:39:17;18.60;;;4.73;;
22129;SDS011;11231;50.746;4.272;2023-12-20T12:41:43;22.00;;;6.20;;
22129;SDS011;11231;50.746;4.272;2023-12-20T12:44:09;18.07;;;4.00;;
22129;SDS011;11231;50.746;4.272;2023-12-20T12:46:35;22.77;;;5.23;;
22129;SDS011;11231;50.746;4.272;2023-12-20T12:49:01;17.93;;;3.77;;
22129;SDS011;11231;50.746;4.272;2023-12-20T12:51:27;22.90;;;5.67;;
22129;SDS011;11231;50.746;4.272;2023-12-20T12:53:54;22.03;;;5.80;;
22129;SDS011;11231;50.746;4.272;2023-12-20T12:56:19;19.83;;;4.37;;
22129;SDS011;11231;50.746;4.272;2023-12-20T12:58:47;19.97;;;4.13;;
22129;SDS011;11231;50.746;4.272;2023-12-20T13:01:13;19.80;;;3.70;;
22129;SDS011;11231;50.746;4.272;2023-12-20T13:03:39;21.37;;;4.07;;
22129;SDS011;11231;50.746;4.272;2023-12-20T13:06:05;21.03;;;4.43;;
22129;SDS011;11231;50.746;4.272;2023-12-20T13:08:33;19.30;;;3.87;;
22129;SDS011;11231;50.746;4.272;2023-12-20T13:11:00;22.53;;;3.30;;
22129;SDS011;11231;50.746;4.272;2023-12-20T13:13:29;18.60;;;3.30;;
22129;SDS011;11231;50.746;4.272;2023-12-20T13:15:56;17.87;;;2.83;;
22129;SDS011;11231;50.746;4.272;2023-12-20T13:18:22;20.03;;;3.27;;
22129;SDS011;11231;50.746;4.272;2023-12-20T13:20:48;20.83;;;3.33;;
22129;SDS011;11231;50.746;4.272;2023-12-20T13:23:14;18.97;;;4.00;;
22129;SDS011;11231;50.746;4.272;2023-12-20T13:25:44;21.27;;;3.03;;
22129;SDS011;11231;50.746;4.272;2023-12-20T13:28:11;24.60;;;4.00;;
22129;SDS011;11231;50.746;4.272;2023-12-20T13:30:37;22.40;;;4.50;;
22129;SDS011;11231;50.746;4.272;2023-12-20T13:33:04;23.20;;;3.70;;
22129;SDS011;11231;50.746;4.272;2023-12-20T13:35:30;19.23;;;3.47;;
22129;SDS011;11231;50.746;4.272;2023-12-20T13:37:57;17.13;;;3.20;;
22129;SDS011;11231;50.746;4.272;2023-12-20T13:40:23;21.80;;;3.70;;
22129;SDS011;11231;50.746;4.272;2023-12-20T13:42:49;20.93;;;3.27;;
22129;SDS011;11231;50.746;4.272;2023-12-20T13:45:16;22.57;;;3.97;;
22129;SDS011;11231;50.746;4.272;2023-12-20T13:47:42;20.83;;;2.83;;
22129;SDS011;11231;50.746;4.272;2023-12-20T13:50:08;25.07;;;3.50;;
22129;SDS011;11231;50.746;4.272;2023-12-20T13:52:36;23.23;;;3.40;;
22129;SDS011;11231;50.746;4.272;2023-12-20T13:55:02;19.83;;;3.40;;
22129;SDS011;11231;50.746;4.272;2023-12-20T13:57:31;18.27;;;3.57;;
22129;SDS011;11231;50.746;4.272;2023-12-20T13:59:57;23.50;;;3.53;;
22129;SDS011;11231;50.746;4.272;2023-12-20T14:02:23;17.33;;;3.80;;
22129;SDS011;11231;50.746;4.272;2023-12-20T14:04:49;17.63;;;3.63;;
22129;SDS011;11231;50.746;4.272;2023-12-20T14:07:15;21.40;;;5.93;;
22129;SDS011;11231;50.746;4.272;2023-12-20T14:09:41;15.70;;;3.80;;
22129;SDS011;11231;50.746;4.272;2023-12-20T14:12:10;20.90;;;3.80;;
22129;SDS011;11231;50.746;4.272;2023-12-20T14:14:37;19.20;;;3.67;;
22129;SDS011;11231;50.746;4.272;2023-12-20T14:17:03;15.97;;;3.90;;
22129;SDS011;11231;50.746;4.272;2023-12-20T14:19:29;17.63;;;3.47;;
22129;SDS011;11231;50.746;4.272;2023-12-20T14:21:55;20.40;;;3.33;;
22129;SDS011;11231;50.746;4.272;2023-12-20T14:24:21;20.90;;;4.07;;
22129;SDS011;11231;50.746;4.272;2023-12-20T14:26:48;16.90;;;3.00;;
22129;SDS011;11231;50.746;4.272;2023-12-20T14:29:14;19.90;;;3.63;;
22129;SDS011;11231;50.746;4.272;2023-12-20T14:31:40;25.30;;;5.60;;
22129;SDS011;11231;50.746;4.272;2023-12-20T14:34:06;22.43;;;5.60;;
22129;SDS011;11231;50.746;4.272;2023-12-20T14:36:34;24.40;;;7.40;;
22129;SDS011;11231;50.746;4.272;2023-12-20T14:39:00;22.23;;;3.97;;